createdAt,value
2023-02-12T00:01:35.343Z,19.27
2023-02-12T00:04:03.460Z,21.27
2023-02-12T00:06:31.513Z,18.97
2023-02-12T00:08:59.957Z,19.57
2023-02-12T00:11:29.623Z,19.37
2023-02-12T00:13:59.427Z,23.73
2023-02-12T00:16:29.304Z,22.47
2023-02-12T00:18:58.773Z,28.27
2023-02-12T00:21:26.891Z,21.60
2023-02-12T00:23:55.192Z,21.90
2023-02-12T00:26:24.146Z,17.57
2023-02-12T00:28:53.294Z,18.97
2023-02-12T00:31:24.590Z,22.30
2023-02-12T00:33:52.817Z,20.33
2023-02-12T00:36:22.742Z,20.83
2023-02-12T00:38:52.968Z,18.87
2023-02-12T00:41:21.996Z,20.80
2023-02-12T00:43:50.743Z,21.07
2023-02-12T00:46:19.508Z,19.50
2023-02-12T00:48:49.113Z,18.03
2023-02-12T00:51:20.127Z,20.80
2023-02-12T00:53:48.230Z,18.17
2023-02-12T00:56:16.403Z,25.80
2023-02-12T00:58:44.663Z,17.73
2023-02-12T01:01:12.808Z,18.47
2023-02-12T01:03:40.970Z,22.73
2023-02-12T01:06:10.690Z,20.70
2023-02-12T01:08:38.831Z,21.47
2023-02-12T01:11:08.172Z,22.30
2023-02-12T01:13:36.855Z,24.73
2023-02-12T01:16:08.858Z,22.07
2023-02-12T01:18:37.826Z,26.07
2023-02-12T01:21:12.943Z,28.67
2023-02-12T01:23:41.236Z,22.47
2023-02-12T01:26:12.202Z,20.23
2023-02-12T01:28:40.588Z,25.00
2023-02-12T01:31:12.068Z,21.40
2023-02-12T01:33:40.732Z,24.70
2023-02-12T01:36:09.926Z,23.73
2023-02-12T01:38:39.534Z,21.87
2023-02-12T01:41:11.856Z,23.17
2023-02-12T01:43:40.369Z,20.77
2023-02-12T01:46:11.579Z,22.30
2023-02-12T01:48:43.420Z,22.93
2023-02-12T01:51:16.115Z,25.93
2023-02-12T01:53:51.996Z,25.50
2023-02-12T01:56:20.619Z,21.23
2023-02-12T01:58:52.551Z,21.20
2023-02-12T02:01:24.103Z,22.57
2023-02-12T02:03:57.009Z,18.83
2023-02-12T02:06:29.549Z,20.43
2023-02-12T02:08:59.130Z,23.33
2023-02-12T02:11:44.511Z,22.20
2023-02-12T02:14:30.366Z,23.17
2023-02-12T02:17:11.351Z,15.80
2023-02-12T02:20:02.523Z,18.50
2023-02-12T02:22:39.152Z,24.03
2023-02-12T02:25:30.826Z,23.60
2023-02-12T02:28:13.241Z,18.30
2023-02-12T02:30:47.140Z,21.67
2023-02-12T02:33:24.682Z,22.73
2023-02-12T02:36:03.113Z,22.00
2023-02-12T02:38:41.130Z,18.37
2023-02-12T02:41:22.683Z,23.07
2023-02-12T02:43:53.180Z,26.40
2023-02-12T02:46:31.055Z,20.57
2023-02-12T02:49:03.220Z,24.87
2023-02-12T02:51:34.451Z,27.80
2023-02-12T02:54:09.305Z,22.13
2023-02-12T02:56:40.460Z,20.83
2023-02-12T02:59:13.220Z,20.20
2023-02-12T03:01:46.688Z,20.10
2023-02-12T03:04:20.605Z,18.90
2023-02-12T03:07:07.934Z,20.37
2023-02-12T03:09:42.099Z,24.17
2023-02-12T03:12:15.453Z,18.60
2023-02-12T03:14:47.881Z,22.93
2023-02-12T03:17:23.296Z,20.87
2023-02-12T03:19:56.477Z,20.50
2023-02-12T03:22:29.522Z,23.13
2023-02-12T03:25:04.809Z,18.60
2023-02-12T03:27:36.282Z,24.50
2023-02-12T03:30:05.522Z,19.23
2023-02-12T03:32:44.413Z,21.13
2023-02-12T03:35:21.058Z,18.43
2023-02-12T03:38:02.826Z,21.20
2023-02-12T03:40:36.216Z,20.57
2023-02-12T03:43:08.121Z,18.83
2023-02-12T03:45:43.761Z,19.90
2023-02-12T03:48:21.516Z,21.07
2023-02-12T03:50:55.636Z,19.23
2023-02-12T03:53:24.085Z,19.20
2023-02-12T03:55:57.714Z,19.00
2023-02-12T03:58:31.165Z,24.03
2023-02-12T04:01:00.135Z,18.77
2023-02-12T04:03:30.814Z,19.97
2023-02-12T04:05:59.181Z,16.37
2023-02-12T04:08:28.747Z,17.20
2023-02-12T04:11:13.105Z,17.63
2023-02-12T04:13:50.896Z,21.97
2023-02-12T04:16:26.736Z,16.50
2023-02-12T04:18:56.914Z,19.37
2023-02-12T04:21:39.566Z,18.53
2023-02-12T04:24:19.295Z,16.90
2023-02-12T04:26:53.309Z,17.33
2023-02-12T04:29:28.118Z,19.67
2023-02-12T04:32:00.785Z,19.47
2023-02-12T04:34:36.678Z,17.73
2023-02-12T04:37:11.202Z,18.60
2023-02-12T04:39:42.362Z,20.67
2023-02-12T04:42:10.644Z,22.40
2023-02-12T04:44:43.593Z,16.57
2023-02-12T04:47:13.357Z,18.73
2023-02-12T04:49:43.095Z,15.80
2023-02-12T04:52:11.238Z,14.70
2023-02-12T04:54:39.672Z,22.23
2023-02-12T04:57:07.823Z,17.70
2023-02-12T04:59:35.998Z,18.17
2023-02-12T05:02:04.219Z,14.30
2023-02-12T05:04:32.293Z,19.33
2023-02-12T05:07:01.821Z,19.17
2023-02-12T05:09:29.983Z,18.47
2023-02-12T05:11:58.104Z,17.40
2023-02-12T05:14:26.657Z,19.33
2023-02-12T05:16:54.802Z,18.37
2023-02-12T05:19:22.909Z,15.53
2023-02-12T05:21:52.230Z,16.83
2023-02-12T05:24:21.761Z,16.33
2023-02-12T05:26:50.541Z,16.90
2023-02-12T05:29:19.048Z,15.17
2023-02-12T05:31:47.528Z,16.33
2023-02-12T05:34:15.993Z,15.40
2023-02-12T05:36:44.085Z,15.97
2023-02-12T05:39:12.610Z,17.50
2023-02-12T05:41:42.106Z,17.87
2023-02-12T05:44:12.064Z,18.67
2023-02-12T05:46:40.420Z,17.60
2023-02-12T05:49:08.778Z,21.20
2023-02-12T05:51:37.374Z,17.67
2023-02-12T05:54:07.025Z,19.50
2023-02-12T05:56:37.059Z,19.67
2023-02-12T05:59:10.079Z,21.27
2023-02-12T06:01:39.772Z,19.30
2023-02-12T06:04:12.607Z,17.23
2023-02-12T06:06:42.178Z,19.10
2023-02-12T06:09:11.051Z,16.20
2023-02-12T06:11:39.689Z,18.83
2023-02-12T06:14:12.717Z,22.00
2023-02-12T06:16:41.531Z,15.43
2023-02-12T06:19:10.876Z,15.23
2023-02-12T06:21:39.088Z,26.60
2023-02-12T06:24:07.479Z,25.40
2023-02-12T06:26:35.653Z,23.50
2023-02-12T06:29:03.759Z,17.77
2023-02-12T06:31:35.278Z,18.63
2023-02-12T06:34:05.489Z,17.40
2023-02-12T06:36:34.027Z,15.27
2023-02-12T06:39:03.076Z,17.63
2023-02-12T06:41:31.456Z,17.83
2023-02-12T06:43:59.642Z,19.57
2023-02-12T06:46:28.064Z,18.40
2023-02-12T06:48:59.305Z,17.70
2023-02-12T06:51:29.017Z,16.37
2023-02-12T06:53:57.532Z,21.57
2023-02-12T06:56:28.095Z,14.27
2023-02-12T06:58:57.701Z,16.60
2023-02-12T07:01:28.842Z,17.40
2023-02-12T07:04:00.169Z,11.63
2023-02-12T07:06:29.639Z,14.93
2023-02-12T07:08:58.633Z,16.17
2023-02-12T07:11:27.653Z,17.33
2023-02-12T07:13:55.970Z,15.73
2023-02-12T07:16:24.543Z,15.70
2023-02-12T07:18:52.769Z,14.77
2023-02-12T07:21:22.376Z,12.50
2023-02-12T07:23:52.127Z,14.27
2023-02-12T07:26:22.112Z,15.73
2023-02-12T07:28:50.900Z,12.73
2023-02-12T07:31:21.303Z,15.33
2023-02-12T07:33:50.332Z,13.63
2023-02-12T07:36:19.942Z,10.93
2023-02-12T07:38:49.549Z,14.03
2023-02-12T07:41:19.976Z,13.10
2023-02-12T07:43:49.992Z,15.80
2023-02-12T07:46:20.381Z,12.73
2023-02-12T07:48:49.305Z,12.43
2023-02-12T07:51:19.991Z,13.33
2023-02-12T07:53:50.110Z,28.93
2023-02-12T07:56:20.553Z,25.80
2023-02-12T07:58:50.818Z,32.63
2023-02-12T08:01:22.015Z,22.57
2023-02-12T08:03:51.922Z,14.70
2023-02-12T08:06:23.067Z,13.13
2023-02-12T08:08:54.199Z,11.73
2023-02-12T08:11:23.022Z,11.70
2023-02-12T08:13:51.615Z,10.47
2023-02-12T08:16:21.614Z,14.87
2023-02-12T08:18:50.688Z,13.20
2023-02-12T08:21:20.561Z,20.77
2023-02-12T08:23:50.971Z,13.17
2023-02-12T08:26:23.225Z,16.50
2023-02-12T08:28:53.608Z,16.67
2023-02-12T08:31:23.664Z,15.03
2023-02-12T08:33:53.337Z,14.80
2023-02-12T08:36:24.151Z,18.67
2023-02-12T08:38:52.521Z,14.10
2023-02-12T08:41:24.218Z,18.60
2023-02-12T08:43:54.965Z,19.30
2023-02-12T08:46:25.741Z,16.17
2023-02-12T08:48:55.248Z,18.80
2023-02-12T08:51:25.224Z,17.47
2023-02-12T08:53:55.671Z,15.93
2023-02-12T08:56:26.343Z,14.47
2023-02-12T08:58:54.506Z,14.80
2023-02-12T09:01:25.085Z,16.43
2023-02-12T09:03:53.623Z,17.60
2023-02-12T09:06:23.922Z,14.93
2023-02-12T09:08:53.837Z,14.43
2023-02-12T09:11:24.483Z,16.27
2023-02-12T09:13:54.670Z,12.20
2023-02-12T09:16:22.872Z,11.67
2023-02-12T09:18:51.023Z,14.57
2023-02-12T09:21:19.957Z,17.03
2023-02-12T09:23:48.562Z,10.77
2023-02-12T09:26:20.799Z,12.93
2023-02-12T09:28:50.016Z,12.47
2023-02-12T09:31:23.263Z,15.57
2023-02-12T09:33:55.031Z,11.40
2023-02-12T09:36:23.455Z,11.67
2023-02-12T09:38:51.682Z,18.60
2023-02-12T09:41:48.578Z,12.70
2023-02-12T09:44:23.896Z,14.77
2023-02-12T09:47:00.087Z,16.17
2023-02-12T09:49:46.654Z,14.33
2023-02-12T09:52:18.825Z,17.60
2023-02-12T09:54:49.207Z,18.57
2023-02-12T09:57:22.306Z,18.65
2023-02-12T09:59:54.961Z,15.55
2023-02-12T10:02:25.925Z,13.15
2023-02-12T10:05:01.649Z,16.98
2023-02-12T10:07:41.679Z,17.60
2023-02-12T10:10:28.346Z,14.10
2023-02-12T10:13:01.575Z,19.23
2023-02-12T10:15:37.298Z,13.63
2023-02-12T10:18:40.834Z,17.35
2023-02-12T10:21:21.398Z,15.25
2023-02-12T10:24:12.793Z,17.63
2023-02-12T10:26:44.698Z,15.55
2023-02-12T10:29:17.315Z,14.00
2023-02-12T10:31:48.499Z,15.35
2023-02-12T10:34:21.431Z,12.82
2023-02-12T10:36:52.798Z,15.52
2023-02-12T10:39:25.433Z,13.68
2023-02-12T10:41:59.457Z,13.43
2023-02-12T10:44:28.061Z,15.25
2023-02-12T10:46:56.924Z,11.73
2023-02-12T10:49:25.407Z,10.98
2023-02-12T10:52:14.797Z,8.43
2023-02-12T10:54:45.737Z,10.43
2023-02-12T10:57:22.117Z,11.57
2023-02-12T10:59:53.264Z,14.07
2023-02-12T11:02:27.439Z,12.07
2023-02-12T11:04:58.419Z,11.27
2023-02-12T11:07:29.418Z,10.63
2023-02-12T11:09:58.901Z,11.07
2023-02-12T11:12:38.386Z,10.85
2023-02-12T11:15:16.111Z,8.00
2023-02-12T11:17:47.309Z,9.20
2023-02-12T11:20:25.718Z,9.65
2023-02-12T11:22:58.608Z,9.05
2023-02-12T11:25:33.000Z,8.18
2023-02-12T11:28:15.468Z,9.07
2023-02-12T11:30:53.611Z,5.97
2023-02-12T11:33:28.439Z,10.38
2023-02-12T11:35:59.543Z,6.18
2023-02-12T11:38:38.843Z,7.18
2023-02-12T11:41:25.591Z,6.25
2023-02-12T11:43:55.638Z,11.88
2023-02-12T11:46:28.121Z,5.10
2023-02-12T11:49:00.879Z,6.80
2023-02-12T11:51:33.561Z,5.28
2023-02-12T11:54:06.686Z,5.20
2023-02-12T11:56:44.744Z,6.05
2023-02-12T11:59:33.585Z,5.55
2023-02-12T12:02:10.714Z,7.70
2023-02-12T12:04:42.201Z,7.00
2023-02-12T12:07:17.943Z,5.85
2023-02-12T12:09:53.182Z,7.40
2023-02-12T12:12:26.804Z,6.95
2023-02-12T12:15:18.846Z,4.97
2023-02-12T12:18:10.750Z,8.25
2023-02-12T12:20:45.585Z,6.65
2023-02-12T12:23:20.104Z,5.70
2023-02-12T12:25:52.956Z,5.47
2023-02-12T12:28:34.391Z,5.65
2023-02-12T12:31:09.851Z,5.40
2023-02-12T12:33:43.924Z,5.82
2023-02-12T12:36:48.105Z,9.20
2023-02-12T12:39:25.152Z,7.68
2023-02-12T12:42:13.056Z,6.65
2023-02-12T12:44:54.043Z,5.72
2023-02-12T12:47:31.343Z,6.00
2023-02-12T12:50:15.295Z,6.22
2023-02-12T12:53:20.020Z,5.18
2023-02-12T12:56:12.318Z,1.67
2023-02-12T12:59:09.978Z,1.38
2023-02-12T13:01:55.746Z,1.05
2023-02-12T13:05:02.385Z,0.88
2023-02-12T13:07:52.266Z,0.98
2023-02-12T13:10:34.490Z,0.77
2023-02-12T13:13:15.237Z,2.25
2023-02-12T13:15:55.599Z,0.90
2023-02-12T13:18:38.724Z,0.80
2023-02-12T13:21:15.217Z,1.67
2023-02-12T13:23:50.779Z,0.90
2023-02-12T13:26:30.867Z,1.00
2023-02-12T13:29:06.298Z,0.82
2023-02-12T13:31:41.450Z,0.90
2023-02-12T13:34:16.487Z,1.27
2023-02-12T13:36:46.779Z,0.90
2023-02-12T13:39:25.009Z,1.00
2023-02-12T13:42:06.104Z,0.90
2023-02-12T13:44:41.558Z,1.30
2023-02-12T13:47:19.831Z,0.75
2023-02-12T13:49:55.014Z,0.88
2023-02-12T13:52:33.088Z,1.15
2023-02-12T13:55:23.166Z,0.88
2023-02-12T13:58:25.653Z,1.42
2023-02-12T14:01:07.599Z,3.55
2023-02-12T14:03:42.111Z,3.63
2023-02-12T14:06:18.429Z,0.90
2023-02-12T14:08:52.053Z,4.22
2023-02-12T14:11:26.178Z,2.15
2023-02-12T14:13:58.797Z,1.80
2023-02-12T14:16:41.407Z,1.17
2023-02-12T14:19:54.522Z,2.55
2023-02-12T14:23:00.097Z,1.30
2023-02-12T14:25:40.093Z,0.95
2023-02-12T14:28:21.790Z,1.25
2023-02-12T14:31:32.221Z,1.33
2023-02-12T14:34:52.307Z,1.20
2023-02-12T14:37:39.252Z,1.20
2023-02-12T14:40:44.051Z,1.77
2023-02-12T14:43:35.418Z,1.02
2023-02-12T14:46:37.615Z,1.25
2023-02-12T14:49:07.748Z,0.70
2023-02-12T14:51:43.924Z,0.90
2023-02-12T14:54:21.801Z,1.55
2023-02-12T14:56:56.077Z,1.00
2023-02-12T14:59:28.827Z,0.80
2023-02-12T15:02:02.710Z,1.45
2023-02-12T15:04:35.144Z,2.55
2023-02-12T15:07:09.544Z,0.87
2023-02-12T15:09:47.637Z,1.67
2023-02-12T15:12:27.008Z,0.83
2023-02-12T15:15:06.656Z,1.27
2023-02-12T15:17:41.149Z,0.90
2023-02-12T15:20:21.946Z,1.53
2023-02-12T15:22:51.442Z,3.43
2023-02-12T15:25:27.929Z,1.30
2023-02-12T15:28:00.076Z,1.37
2023-02-12T15:30:33.263Z,1.57
2023-02-12T15:33:06.398Z,0.90
2023-02-12T15:35:39.234Z,0.80
2023-02-12T15:38:10.124Z,0.70
2023-02-12T15:40:57.297Z,0.83
2023-02-12T15:43:30.804Z,1.10
2023-02-12T15:46:00.664Z,1.13
2023-02-12T15:48:42.187Z,1.80
2023-02-12T15:51:24.776Z,1.23
2023-02-12T15:53:54.868Z,0.70
2023-02-12T15:56:28.081Z,1.70
2023-02-12T15:58:59.865Z,1.33
2023-02-12T16:01:31.861Z,1.30
2023-02-12T16:04:03.726Z,1.77
2023-02-12T16:06:35.352Z,1.10
2023-02-12T16:09:10.004Z,3.70
2023-02-12T16:11:44.592Z,5.83
2023-02-12T16:14:25.488Z,7.53
2023-02-12T16:16:58.335Z,4.10
2023-02-12T16:19:33.541Z,9.20
2023-02-12T16:22:16.940Z,7.60
2023-02-12T16:24:50.082Z,7.10
2023-02-12T16:27:23.446Z,4.13
2023-02-12T16:29:55.421Z,5.43
2023-02-12T16:32:38.611Z,5.27
2023-02-12T16:35:25.941Z,4.13
2023-02-12T16:37:58.485Z,10.87
2023-02-12T16:40:38.299Z,5.00
2023-02-12T16:43:27.328Z,6.37
2023-02-12T16:46:08.396Z,13.37
2023-02-12T16:48:43.109Z,10.60
2023-02-12T16:51:24.283Z,14.60
2023-02-12T16:53:58.144Z,12.90
2023-02-12T16:56:30.009Z,13.47
2023-02-12T16:59:02.543Z,9.60
2023-02-12T17:01:35.193Z,8.73
2023-02-12T17:04:09.672Z,12.40
2023-02-12T17:06:38.705Z,8.77
2023-02-12T17:09:08.940Z,10.23
2023-02-12T17:11:42.371Z,7.50
2023-02-12T17:14:16.047Z,12.97
2023-02-12T17:16:48.103Z,13.53
2023-02-12T17:19:19.318Z,12.27
2023-02-12T17:21:49.675Z,14.90
2023-02-12T17:24:26.223Z,14.33
2023-02-12T17:26:55.885Z,10.63
2023-02-12T17:29:32.896Z,10.03
2023-02-12T17:32:02.727Z,11.73
2023-02-12T17:34:46.508Z,16.47
2023-02-12T17:37:19.246Z,14.80
2023-02-12T17:39:50.948Z,10.27
2023-02-12T17:42:24.458Z,9.70
2023-02-12T17:44:59.295Z,10.17
2023-02-12T17:47:28.380Z,9.03
2023-02-12T17:50:01.600Z,16.50
2023-02-12T17:52:31.326Z,7.37
2023-02-12T17:55:00.902Z,11.43
2023-02-12T17:57:30.610Z,8.00
2023-02-12T18:00:02.313Z,8.70
2023-02-12T18:02:39.966Z,10.60
2023-02-12T18:05:10.940Z,8.63
2023-02-12T18:07:40.449Z,9.97
2023-02-12T18:10:12.354Z,11.60
2023-02-12T18:12:46.097Z,11.93
2023-02-12T18:15:17.712Z,9.37
2023-02-12T18:17:49.432Z,9.13
2023-02-12T18:20:23.882Z,14.27
2023-02-12T18:22:57.662Z,13.23
2023-02-12T18:25:28.375Z,10.30
2023-02-12T18:27:58.651Z,11.23
2023-02-12T18:30:40.961Z,10.33
2023-02-12T18:33:14.656Z,14.90
2023-02-12T18:35:45.022Z,12.27
2023-02-12T18:38:18.552Z,9.40
2023-02-12T18:40:49.082Z,8.30
2023-02-12T18:43:20.037Z,7.53
2023-02-12T18:45:51.296Z,10.60
2023-02-12T18:48:21.187Z,9.20
2023-02-12T18:50:58.063Z,9.43
2023-02-12T18:53:27.680Z,9.80
2023-02-12T18:56:02.451Z,7.23
2023-02-12T18:58:33.220Z,9.57
2023-02-12T19:01:14.924Z,6.20
2023-02-12T19:03:46.011Z,8.07
2023-02-12T19:06:25.954Z,8.90
2023-02-12T19:08:59.001Z,7.17
2023-02-12T19:11:30.927Z,8.20
2023-02-12T19:14:05.694Z,9.80
2023-02-12T19:16:37.932Z,9.80
2023-02-12T19:19:08.567Z,12.80
2023-02-12T19:21:38.962Z,10.17
2023-02-12T19:24:12.417Z,9.27
2023-02-12T19:26:43.151Z,23.00
2023-02-12T19:29:19.128Z,27.80
2023-02-12T19:31:51.148Z,15.47
2023-02-12T19:34:25.383Z,16.60
2023-02-12T19:37:05.363Z,12.60
2023-02-12T19:39:41.647Z,12.10
2023-02-12T19:42:15.377Z,13.23
2023-02-12T19:44:49.693Z,13.87
2023-02-12T19:47:22.708Z,9.27
2023-02-12T19:49:53.361Z,9.47
2023-02-12T19:52:24.597Z,9.13
2023-02-12T19:54:58.744Z,8.13
2023-02-12T19:57:32.142Z,8.93
2023-02-12T20:00:04.258Z,12.47
2023-02-12T20:02:36.758Z,14.37
2023-02-12T20:05:10.758Z,15.90
2023-02-12T20:07:43.806Z,24.67
2023-02-12T20:10:18.015Z,12.93
2023-02-12T20:12:49.887Z,15.17
2023-02-12T20:15:25.697Z,15.63
2023-02-12T20:17:58.019Z,22.93
2023-02-12T20:20:28.710Z,14.80
2023-02-12T20:22:59.243Z,16.80
2023-02-12T20:25:30.806Z,15.67
2023-02-12T20:28:01.576Z,16.50
2023-02-12T20:30:33.059Z,13.27
2023-02-12T20:33:04.857Z,11.40
2023-02-12T20:35:40.324Z,10.10
2023-02-12T20:38:12.886Z,11.50
2023-02-12T20:40:42.444Z,10.97
2023-02-12T20:43:16.833Z,11.27
2023-02-12T20:45:50.480Z,10.57
2023-02-12T20:48:23.226Z,14.50
2023-02-12T20:50:53.500Z,13.13
2023-02-12T20:53:23.906Z,11.20
2023-02-12T20:55:56.334Z,11.20
2023-02-12T20:58:26.295Z,15.10
2023-02-12T21:00:59.251Z,17.23
2023-02-12T21:03:32.420Z,18.33
2023-02-12T21:06:01.264Z,12.93
2023-02-12T21:08:33.803Z,14.30
2023-02-12T21:11:04.260Z,13.23
2023-02-12T21:13:35.292Z,14.33
2023-02-12T21:16:09.851Z,12.47
2023-02-12T21:18:44.976Z,14.97
2023-02-12T21:21:15.932Z,15.20
2023-02-12T21:23:45.752Z,17.97
2023-02-12T21:26:18.158Z,13.73
2023-02-12T21:28:48.352Z,16.20
2023-02-12T21:31:19.784Z,16.10
2023-02-12T21:33:53.595Z,13.57
2023-02-12T21:36:26.445Z,14.50
2023-02-12T21:38:56.085Z,19.30
2023-02-12T21:41:26.611Z,15.17
2023-02-12T21:44:01.188Z,11.43
2023-02-12T21:46:30.929Z,14.97
2023-02-12T21:49:08.629Z,11.53
2023-02-12T21:51:40.223Z,12.07
2023-02-12T21:54:10.916Z,11.73
2023-02-12T21:56:42.560Z,13.70
2023-02-12T21:59:12.142Z,10.13
2023-02-12T22:01:43.899Z,12.10
2023-02-12T22:04:14.956Z,11.43
2023-02-12T22:06:48.549Z,11.57
2023-02-12T22:09:18.534Z,11.40
2023-02-12T22:11:46.740Z,12.73
2023-02-12T22:14:17.534Z,17.83
2023-02-12T22:16:46.202Z,23.17
2023-02-12T22:19:15.802Z,20.50
2023-02-12T22:21:44.496Z,14.30
2023-02-12T22:24:16.859Z,19.50
2023-02-12T22:26:46.178Z,17.90
2023-02-12T22:29:17.984Z,14.70
2023-02-12T22:31:47.529Z,15.27
2023-02-12T22:34:18.943Z,13.23
2023-02-12T22:36:47.914Z,13.00
2023-02-12T22:39:18.691Z,14.67
2023-02-12T22:41:46.865Z,10.60
2023-02-12T22:44:15.885Z,10.70
2023-02-12T22:46:44.456Z,12.23
2023-02-12T22:49:12.654Z,10.87
2023-02-12T22:51:42.600Z,12.87
2023-02-12T22:54:14.483Z,20.03
2023-02-12T22:56:43.169Z,11.00
2023-02-12T22:59:12.284Z,12.27
2023-02-12T23:01:40.701Z,9.97
2023-02-12T23:04:09.177Z,12.83
2023-02-12T23:06:40.810Z,11.10
2023-02-12T23:09:14.257Z,10.07
2023-02-12T23:11:42.454Z,12.93
2023-02-12T23:14:10.575Z,10.63
2023-02-12T23:16:38.701Z,15.40
2023-02-12T23:19:06.962Z,10.60
2023-02-12T23:21:35.396Z,11.33
2023-02-12T23:24:03.649Z,10.43
2023-02-12T23:26:33.442Z,9.67
2023-02-12T23:29:01.499Z,11.27
2023-02-12T23:31:29.723Z,10.70
2023-02-12T23:33:57.910Z,9.07
2023-02-12T23:36:26.110Z,10.43
2023-02-12T23:38:54.234Z,10.93
2023-02-12T23:41:22.321Z,10.83
2023-02-12T23:43:51.955Z,10.83
2023-02-12T23:46:20.137Z,10.73
2023-02-12T23:48:48.257Z,10.70
2023-02-12T23:51:16.324Z,14.27
2023-02-12T23:53:44.438Z,11.77
2023-02-12T23:56:12.543Z,13.57
2023-02-12T23:58:40.695Z,12.80
